Time;durP1;ratioP1;P1;durP2;ratioP2;P2;SDS_P1;SDS_P2;PMS_P1;PMS_P2;Temp;Humidity;BMP_temperature;BMP_pressure;BME280_temperature;BME280_humidity;BME280_pressure;Samples;Min_cycle;Max_cycle;Signal;HPM_P1;HPM_P2
2021/12/11 00:00:54;;;;;;;;;29.50;24.00;;;;;21.08;44.16;99905.79;109204;1279;19949;-76
2021/12/11 00:03:20;;;;;;;;;30.00;28.00;;;;;21.05;44.34;99905.14;109285;1280;18665;-75
2021/12/11 00:05:46;;;;;;;;;29.50;26.00;;;;;21.03;44.33;99908.59;109435;1280;18701;-75
2021/12/11 00:08:11;;;;;;;;;27.50;22.50;;;;;21.02;44.22;99905.75;109335;1280;19493;-76
2021/12/11 00:10:37;;;;;;;;;25.00;21.50;;;;;21.06;44.13;99910.68;109406;1280;18683;-75
2021/12/11 00:13:03;;;;;;;;;29.00;26.00;;;;;21.03;44.22;99909.82;109329;1279;21197;-76
2021/12/11 00:15:29;;;;;;;;;28.50;22.00;;;;;21.03;44.30;99917.24;109366;1280;19347;-76
2021/12/11 00:17:55;;;;;;;;;27.00;24.00;;;;;21.02;44.20;99919.74;108947;1280;552932;-76
2021/12/11 00:20:21;;;;;;;;;22.00;21.50;;;;;21.03;44.20;99923.02;109333;1279;23088;-76
2021/12/11 00:22:47;;;;;;;;;28.00;24.50;;;;;21.04;44.26;99922.90;109306;1280;21005;-76
2021/12/11 00:25:13;;;;;;;;;25.00;22.00;;;;;21.05;44.14;99925.69;109295;1279;22464;-73
2021/12/11 00:27:39;;;;;;;;;28.00;24.00;;;;;21.03;44.16;99923.26;109331;1280;23786;-76
2021/12/11 00:30:06;;;;;;;;;28.00;22.50;;;;;21.07;43.95;99931.19;109353;1279;19833;-76
2021/12/11 00:32:32;;;;;;;;;24.50;24.50;;;;;21.05;44.04;99930.42;109364;1279;19705;-76
2021/12/11 00:34:57;;;;;;;;;28.00;24.00;;;;;21.03;44.09;99931.06;109405;1280;18744;-76
2021/12/11 00:37:24;;;;;;;;;25.50;24.00;;;;;21.02;44.18;99933.03;109419;1280;23155;-76
2021/12/11 00:39:50;;;;;;;;;22.00;22.00;;;;;21.01;44.13;99934.41;109389;1279;23051;-74
2021/12/11 00:42:16;;;;;;;;;25.00;23.50;;;;;21.02;43.94;99941.33;109366;1280;18734;-75
2021/12/11 00:44:42;;;;;;;;;25.00;22.00;;;;;21.05;44.01;99951.75;109340;1280;19328;-76
2021/12/11 00:47:08;;;;;;;;;24.00;18.50;;;;;21.04;43.81;99960.00;109377;1280;18670;-73
2021/12/11 00:49:34;;;;;;;;;24.00;21.00;;;;;21.03;43.91;99962.51;109366;1280;19356;-76
2021/12/11 00:52:00;;;;;;;;;25.50;24.50;;;;;21.04;43.93;99963.52;109380;1280;19319;-76
2021/12/11 00:54:26;;;;;;;;;24.00;20.50;;;;;21.02;44.08;99971.96;109318;1280;22236;-76
2021/12/11 00:56:52;;;;;;;;;23.00;20.50;;;;;21.01;43.91;99972.34;109375;1279;20154;-76
2021/12/11 00:59:18;;;;;;;;;22.00;20.00;;;;;21.01;44.00;99975.10;109350;1279;21527;-75
2021/12/11 01:01:44;;;;;;;;;25.00;22.00;;;;;21.02;43.88;99975.20;109346;1280;18792;-75
2021/12/11 01:04:10;;;;;;;;;22.00;20.00;;;;;21.02;43.90;99979.43;109382;1279;20288;-76
2021/12/11 01:06:36;;;;;;;;;23.00;20.00;;;;;21.02;43.88;99981.15;109347;1279;20509;-76
2021/12/11 01:09:02;;;;;;;;;28.50;25.00;;;;;20.99;43.71;99978.79;109360;1280;19211;-76
2021/12/11 01:11:28;;;;;;;;;29.00;22.00;;;;;21.01;43.72;99986.13;109340;1280;18669;-76
2021/12/11 01:13:54;;;;;;;;;23.00;21.00;;;;;21.02;43.81;99987.68;109358;1279;19500;-76
2021/12/11 01:16:21;;;;;;;;;27.50;22.00;;;;;21.01;43.89;99985.80;109358;1279;20374;-76
2021/12/11 01:18:47;;;;;;;;;27.67;22.33;;;;;21.01;43.86;99988.69;109310;1279;18912;-76
2021/12/11 01:21:27;;;;;;;;;28.00;25.50;;;;;21.02;43.75;99991.66;109342;1280;21913;-75
2021/12/11 01:24:09;;;;;;;;;25.67;20.67;;;;;21.01;43.66;99992.58;109450;1279;19654;-76
2021/12/11 01:26:35;;;;;;;;;29.00;22.00;;;;;21.00;43.79;99997.95;109355;1279;18941;-76
2021/12/11 01:29:01;;;;;;;;;23.67;23.00;;;;;20.98;43.69;100005.05;109361;1279;21065;-76
2021/12/11 01:31:27;;;;;;;;;22.00;20.50;;;;;21.00;43.77;100008.54;109402;1279;22291;-77
2021/12/11 01:33:53;;;;;;;;;20.00;18.00;;;;;21.01;43.66;100011.87;109285;1280;20532;-77
2021/12/11 01:36:19;;;;;;;;;22.00;20.00;;;;;21.01;43.58;100015.27;109378;1279;19852;-76
2021/12/11 01:38:45;;;;;;;;;25.00;21.50;;;;;21.00;43.77;100015.51;109388;1280;18617;-75
2021/12/11 01:41:12;;;;;;;;;24.50;21.50;;;;;21.00;43.65;100018.15;109215;1280;18831;-75
2021/12/11 01:43:38;;;;;;;;;29.00;23.00;;;;;21.00;43.69;100025.52;109315;1280;22889;-76
2021/12/11 01:46:04;;;;;;;;;26.00;21.00;;;;;21.01;43.50;100020.92;109391;1280;20413;-76
2021/12/11 01:48:30;;;;;;;;;21.00;18.00;;;;;21.03;43.70;100027.39;109359;1279;18728;-76
2021/12/11 01:50:56;;;;;;;;;25.00;22.50;;;;;21.00;43.61;100023.04;109413;1279;21587;-76
2021/12/11 01:53:22;;;;;;;;;25.50;23.50;;;;;21.00;43.57;100024.50;109382;1280;20131;-75
2021/12/11 01:55:48;;;;;;;;;24.00;22.00;;;;;20.97;43.58;100021.38;109408;1279;21226;-76
2021/12/11 01:58:13;;;;;;;;;24.00;21.00;;;;;20.98;43.70;100026.71;109392;1280;22259;-76
2021/12/11 02:00:39;;;;;;;;;24.50;21.00;;;;;20.97;43.80;100030.64;109365;1279;20083;-77
2021/12/11 02:03:05;;;;;;;;;24.00;21.00;;;;;20.98;43.62;100034.17;109383;1280;21794;-76
2021/12/11 02:05:31;;;;;;;;;21.00;18.00;;;;;20.97;43.62;100034.78;109324;1280;23414;-76
2021/12/11 02:07:57;;;;;;;;;24.00;21.50;;;;;21.00;43.51;100035.40;109368;1280;18593;-77
2021/12/11 02:10:23;;;;;;;;;21.50;20.00;;;;;21.00;43.55;100034.23;109440;1279;20542;-76
2021/12/11 02:12:49;;;;;;;;;25.00;21.50;;;;;21.00;43.69;100033.60;109404;1280;21256;-76
2021/12/11 02:15:15;;;;;;;;;22.00;20.50;;;;;20.99;43.45;100035.33;109362;1278;19315;-76
2021/12/11 02:17:41;;;;;;;;;27.50;22.00;;;;;20.99;43.58;100035.52;109348;1279;19389;-76
2021/12/11 02:20:07;;;;;;;;;24.00;20.00;;;;;20.99;43.36;100039.60;109213;1280;20016;-76
2021/12/11 02:22:37;;;;;;;;;25.50;20.00;;;;;20.99;43.50;100040.80;109445;1280;18562;-77
2021/12/11 02:25:03;;;;;;;;;18.33;18.00;;;;;20.98;43.48;100043.02;109446;1280;22470;-75
2021/12/11 02:27:29;;;;;;;;;21.50;19.50;;;;;21.00;43.46;100046.23;109344;1280;20836;-74
2021/12/11 02:29:55;;;;;;;;;20.00;18.00;;;;;20.97;43.46;100045.85;109327;1280;22467;-74
2021/12/11 02:32:26;;;;;;;;;21.00;19.50;;;;;20.97;43.60;100049.37;109395;1280;20418;-75
2021/12/11 02:34:52;;;;;;;;;26.50;21.50;;;;;20.95;43.62;100048.48;109388;1280;21295;-74
2021/12/11 02:37:17;;;;;;;;;29.50;25.00;;;;;20.96;43.67;100050.92;109383;1280;20544;-74
2021/12/11 02:39:44;;;;;;;;;24.00;21.00;;;;;20.95;43.50;100048.86;109345;1280;18700;-74
2021/12/11 02:42:10;;;;;;;;;22.00;20.00;;;;;20.96;43.60;100048.98;109381;1279;19775;-75
2021/12/11 02:44:37;;;;;;;;;23.00;20.50;;;;;20.97;43.40;100057.77;109264;1279;18573;-74
2021/12/11 02:47:03;;;;;;;;;24.33;21.67;;;;;20.98;43.38;100059.65;109324;1280;21166;-74
2021/12/11 02:49:29;;;;;;;;;22.50;20.00;;;;;20.99;43.35;100066.61;109230;1279;19386;-74
2021/12/11 02:51:55;;;;;;;;;22.00;20.00;;;;;20.98;43.43;100071.42;109258;1279;23106;-74
2021/12/11 02:54:21;;;;;;;;;22.00;20.00;;;;;20.98;43.33;100071.73;109350;1280;18636;-74
2021/12/11 02:56:47;;;;;;;;;24.00;21.00;;;;;20.97;43.50;100069.40;109326;1280;19775;-74
2021/12/11 02:59:14;;;;;;;;;25.67;22.33;;;;;20.96;43.55;100069.20;109345;1280;19577;-74
2021/12/11 03:01:40;;;;;;;;;16.00;16.00;;;;;20.95;43.33;100068.47;109345;1279;20867;-74
2021/12/11 03:04:13;;;;;;;;;24.00;20.00;;;;;20.95;43.40;100070.27;109343;1279;21073;-77
2021/12/11 03:06:43;;;;;;;;;22.00;20.00;;;;;20.97;43.40;100074.58;109385;1280;19033;-74
2021/12/11 03:09:09;;;;;;;;;20.67;19.67;;;;;20.97;43.27;100077.73;109390;1280;19075;-74
2021/12/11 03:11:35;;;;;;;;;21.00;18.00;;;;;20.96;43.22;100074.55;109393;1280;21243;-74
2021/12/11 03:14:03;;;;;;;;;22.50;20.50;;;;;20.96;43.24;100080.96;109301;1279;18700;-74
2021/12/11 03:16:29;;;;;;;;;22.00;20.33;;;;;20.96;43.35;100083.86;109352;1279;20500;-74
2021/12/11 03:18:55;;;;;;;;;21.50;21.00;;;;;20.94;43.41;100086.40;109400;1279;20023;-74
2021/12/11 03:21:21;;;;;;;;;18.00;17.00;;;;;20.94;43.22;100088.79;109371;1280;18690;-77
2021/12/11 03:23:47;;;;;;;;;21.00;20.00;;;;;20.96;43.26;100095.89;109356;1280;19140;-77
2021/12/11 03:26:13;;;;;;;;;25.50;22.00;;;;;20.94;43.14;100093.49;109354;1279;21778;-77
2021/12/11 03:28:39;;;;;;;;;28.00;20.50;;;;;20.95;43.30;100103.55;109351;1280;18586;-74
2021/12/11 03:31:05;;;;;;;;;20.50;18.00;;;;;20.93;43.36;100104.00;109359;1280;19379;-74
2021/12/11 03:33:31;;;;;;;;;22.50;19.50;;;;;20.92;43.25;100106.12;109334;1280;19953;-74
2021/12/11 03:35:57;;;;;;;;;23.00;21.00;;;;;20.93;43.38;100110.90;109353;1279;18596;-76
2021/12/11 03:38:22;;;;;;;;;20.00;18.50;;;;;20.93;43.39;100111.98;109360;1280;18741;-76
2021/12/11 03:40:48;;;;;;;;;22.50;20.00;;;;;20.93;43.31;100111.15;109326;1279;19348;-76
2021/12/11 03:43:14;;;;;;;;;23.50;20.50;;;;;20.91;43.25;100110.21;109374;1280;18555;-74
2021/12/11 03:45:40;;;;;;;;;24.00;20.50;;;;;20.93;43.26;100111.66;109420;1280;18944;-76
2021/12/11 03:48:06;;;;;;;;;23.67;21.33;;;;;20.90;43.06;100107.42;109366;1279;20354;-76
2021/12/11 03:50:32;;;;;;;;;24.00;21.00;;;;;20.91;43.03;100116.41;109343;1280;19342;-76
2021/12/11 03:52:58;;;;;;;;;22.00;20.00;;;;;20.93;43.22;100116.96;109386;1280;18910;-76
2021/12/11 03:55:24;;;;;;;;;24.00;19.50;;;;;20.92;43.01;100116.89;109301;1279;19962;-74
2021/12/11 03:57:55;;;;;;;;;26.00;21.00;;;;;20.91;43.27;100117.75;109340;1279;19244;-74
2021/12/11 04:00:22;;;;;;;;;20.50;18.00;;;;;20.92;43.19;100119.19;109310;1279;19308;-74
2021/12/11 04:02:48;;;;;;;;;18.00;17.00;;;;;20.93;43.17;100120.95;109388;1279;19601;-74
2021/12/11 04:05:14;;;;;;;;;22.33;19.67;;;;;20.92;43.03;100127.57;109366;1280;19396;-74
2021/12/11 04:07:40;;;;;;;;;23.50;21.00;;;;;20.93;43.20;100128.95;109373;1279;19374;-76
2021/12/11 04:10:06;;;;;;;;;20.00;18.50;;;;;20.93;43.18;100134.50;109349;1280;23186;-76
2021/12/11 04:12:32;;;;;;;;;23.00;21.00;;;;;20.94;43.16;100137.91;109368;1279;18588;-77
2021/12/11 04:14:58;;;;;;;;;20.00;17.50;;;;;20.94;43.09;100137.66;109402;1280;18804;-76
2021/12/11 04:17:24;;;;;;;;;18.00;17.00;;;;;20.94;43.21;100141.77;109428;1279;19481;-76
2021/12/11 04:19:50;;;;;;;;;20.67;20.00;;;;;20.90;43.08;100148.30;109367;1280;18870;-76
2021/12/11 04:22:16;;;;;;;;;20.67;20.33;;;;;20.91;43.10;100152.23;109375;1280;19547;-76
2021/12/11 04:24:42;;;;;;;;;24.00;18.00;;;;;20.91;43.29;100148.77;109396;1279;20066;-76
2021/12/11 04:27:08;;;;;;;;;24.00;20.50;;;;;20.92;43.18;100152.96;109317;1280;18603;-76
2021/12/11 04:29:34;;;;;;;;;20.00;19.00;;;;;20.89;43.12;100148.82;109397;1280;21235;-77
2021/12/11 04:32:01;;;;;;;;;20.50;18.00;;;;;20.90;43.09;100148.84;109381;1279;22531;-77
2021/12/11 04:34:27;;;;;;;;;23.67;19.33;;;;;20.89;43.16;100149.71;109393;1279;18875;-74
2021/12/11 04:36:55;;;;;;;;;25.00;20.50;;;;;20.88;43.11;100152.21;109368;1280;20623;-75
2021/12/11 04:39:21;;;;;;;;;22.33;20.00;;;;;20.92;43.10;100160.09;109359;1278;23194;-74
2021/12/11 04:41:53;;;;;;;;;21.67;20.33;;;;;20.90;42.94;100160.83;109358;1280;22948;-74
2021/12/11 04:44:21;;;;;;;;;19.00;17.67;;;;;20.90;43.06;100167.83;109331;1280;23001;-74
2021/12/11 04:46:47;;;;;;;;;26.00;22.00;;;;;20.90;42.96;100168.20;109387;1279;22058;-76
2021/12/11 04:49:19;;;;;;;;;21.50;20.00;;;;;20.92;42.88;100165.39;109431;1280;18645;-76
2021/12/11 04:51:50;;;;;;;;;24.00;20.00;;;;;20.92;43.06;100165.57;109389;1280;22416;-74
2021/12/11 04:54:31;;;;;;;;;18.00;17.67;;;;;20.91;43.13;100170.92;109312;1280;21622;-73
2021/12/11 04:57:21;;;;;;;;;23.00;21.67;;;;;20.89;43.07;100180.39;109359;1280;20486;-74
2021/12/11 05:00:05;;;;;;;;;23.50;21.00;;;;;20.90;43.08;100180.65;109372;1279;18813;-76
2021/12/11 05:02:57;;;;;;;;;21.67;19.33;;;;;20.89;42.87;100188.10;109320;1280;19580;-76
2021/12/11 05:05:40;;;;;;;;;23.00;19.33;;;;;20.90;42.96;100186.72;109329;1280;20934;-76
2021/12/11 05:08:26;;;;;;;;;17.67;16.33;;;;;20.92;43.00;100186.44;109347;1279;20752;-76
2021/12/11 05:10:55;;;;;;;;;24.33;23.00;;;;;20.90;42.76;100192.77;109396;1280;19831;-77
2021/12/11 05:13:21;;;;;;;;;18.67;17.67;;;;;20.91;42.93;100198.09;109352;1279;22412;-76
2021/12/11 05:15:47;;;;;;;;;21.67;20.00;;;;;20.92;42.99;100207.95;109356;1280;22389;-76
2021/12/11 05:18:13;;;;;;;;;21.50;20.00;;;;;20.90;43.07;100210.41;109428;1280;21473;-76
2021/12/11 05:20:39;;;;;;;;;21.00;19.00;;;;;20.90;42.80;100206.04;109357;1279;20191;-76
2021/12/11 05:23:05;;;;;;;;;23.00;20.50;;;;;20.90;42.98;100212.12;109431;1280;18784;-76
2021/12/11 05:25:31;;;;;;;;;20.00;18.00;;;;;20.90;42.80;100218.99;109417;1279;19944;-76
2021/12/11 05:27:57;;;;;;;;;19.00;17.50;;;;;20.90;42.96;100216.81;109324;1280;18612;-76
2021/12/11 05:30:23;;;;;;;;;21.00;20.00;;;;;20.89;42.99;100218.81;109288;1280;18640;-77
2021/12/11 05:32:49;;;;;;;;;20.00;19.50;;;;;20.89;43.06;100225.44;109376;1280;19449;-76
2021/12/11 05:35:15;;;;;;;;;20.67;20.00;;;;;20.88;42.87;100231.80;109417;1279;19989;-76
2021/12/11 05:37:41;;;;;;;;;22.00;20.00;;;;;20.88;42.98;100238.34;109431;1279;22474;-76
2021/12/11 05:40:07;;;;;;;;;22.00;20.50;;;;;20.88;42.97;100240.27;109324;1280;19329;-77
2021/12/11 05:42:33;;;;;;;;;18.50;17.50;;;;;20.90;42.78;100241.75;109400;1280;22990;-77
2021/12/11 05:44:59;;;;;;;;;21.00;20.00;;;;;20.91;42.82;100242.89;109341;1279;23007;-76
2021/12/11 05:47:25;;;;;;;;;23.50;20.00;;;;;20.85;42.85;100233.63;109363;1280;23368;-76
2021/12/11 05:49:50;;;;;;;;;25.00;21.00;;;;;20.88;42.80;100241.95;109344;1280;18716;-76
2021/12/11 05:52:16;;;;;;;;;23.50;20.00;;;;;20.89;42.88;100243.80;109378;1280;18583;-76
2021/12/11 05:54:44;;;;;;;;;21.67;20.33;;;;;20.89;42.83;100239.55;109318;1279;21745;-76
2021/12/11 05:57:11;;;;;;;;;19.33;18.00;;;;;20.86;42.83;100235.86;109366;1280;20379;-76
2021/12/11 05:59:37;;;;;;;;;23.67;20.00;;;;;20.86;42.96;100238.33;109344;1280;19941;-76
2021/12/11 06:02:03;;;;;;;;;24.00;21.00;;;;;20.86;42.78;100241.48;109356;1280;20977;-76
2021/12/11 06:04:29;;;;;;;;;22.00;20.50;;;;;20.87;42.78;100246.11;109362;1279;19429;-74
2021/12/11 06:06:55;;;;;;;;;19.50;17.50;;;;;20.84;42.91;100246.77;109377;1280;19286;-74
2021/12/11 06:09:21;;;;;;;;;24.00;21.00;;;;;20.86;42.80;100251.12;109314;1279;22384;-74
2021/12/11 06:11:47;;;;;;;;;23.00;21.00;;;;;20.87;42.79;100259.83;109362;1279;19346;-74
2021/12/11 06:14:13;;;;;;;;;21.00;17.50;;;;;20.88;42.83;100264.35;109345;1279;18826;-76
2021/12/11 06:16:39;;;;;;;;;22.00;18.00;;;;;20.89;42.81;100274.27;109392;1280;19785;-74
2021/12/11 06:19:06;;;;;;;;;21.00;20.00;;;;;20.87;42.86;100277.66;109366;1280;21026;-74
2021/12/11 06:21:32;;;;;;;;;21.67;20.00;;;;;20.87;42.78;100279.14;109345;1279;18964;-74
2021/12/11 06:23:57;;;;;;;;;17.00;17.00;;;;;20.86;42.70;100279.44;109420;1280;20184;-75
2021/12/11 06:26:23;;;;;;;;;19.50;18.50;;;;;20.85;42.78;100282.88;109413;1279;19354;-75
2021/12/11 06:28:49;;;;;;;;;23.50;21.00;;;;;20.87;42.92;100294.05;109401;1279;19084;-75
2021/12/11 06:31:18;;;;;;;;;23.67;20.67;;;;;20.88;42.79;100302.11;109417;1279;19527;-74
2021/12/11 06:33:44;;;;;;;;;21.00;20.00;;;;;20.84;42.84;100305.06;109399;1280;19798;-74
2021/12/11 06:36:11;;;;;;;;;22.67;19.00;;;;;20.83;42.81;100321.31;109390;1280;19532;-77
2021/12/11 06:38:37;;;;;;;;;23.33;20.67;;;;;20.85;42.89;100326.16;109378;1280;22184;-76
2021/12/11 06:41:03;;;;;;;;;23.00;20.00;;;;;20.88;42.59;100336.77;109394;1279;19440;-76
2021/12/11 06:43:29;;;;;;;;;18.00;16.00;;;;;20.88;42.74;100339.34;109424;1279;21040;-76
2021/12/11 06:45:55;;;;;;;;;29.00;24.50;;;;;20.87;42.82;100345.95;109439;1279;19474;-76
2021/12/11 06:48:21;;;;;;;;;22.00;19.50;;;;;20.86;42.73;100353.16;109408;1279;18576;-76
2021/12/11 06:50:47;;;;;;;;;27.00;22.00;;;;;20.85;42.77;100363.58;109389;1279;18805;-76
2021/12/11 06:53:12;;;;;;;;;27.00;23.00;;;;;20.87;42.74;100365.41;109358;1279;19325;-73
2021/12/11 06:55:38;;;;;;;;;30.00;24.00;;;;;20.87;42.63;100373.97;109429;1280;18611;-75
2021/12/11 06:58:04;;;;;;;;;20.00;17.50;;;;;20.86;42.72;100380.23;109435;1280;18666;-74
2021/12/11 07:00:30;;;;;;;;;25.00;23.50;;;;;20.86;42.71;100378.39;109365;1279;19370;-77
2021/12/11 07:02:56;;;;;;;;;25.00;23.00;;;;;20.84;42.85;100379.38;109396;1280;19240;-75
2021/12/11 07:05:22;;;;;;;;;24.00;21.00;;;;;20.84;42.69;100378.24;109366;1280;18738;-74
2021/12/11 07:07:48;;;;;;;;;24.00;21.00;;;;;20.87;42.61;100387.14;109348;1280;19386;-74
2021/12/11 07:10:14;;;;;;;;;25.00;23.67;;;;;20.90;42.42;100384.66;109360;1280;19532;-76
2021/12/11 07:12:40;;;;;;;;;24.50;23.00;;;;;20.99;42.49;100392.22;109174;1279;18849;-78
2021/12/11 07:15:06;;;;;;;;;24.00;22.00;;;;;21.06;42.31;100395.02;109281;1280;24671;-76
2021/12/11 07:17:33;;;;;;;;;27.00;21.00;;;;;21.07;42.94;100398.54;109250;1280;18633;-77
2021/12/11 07:19:59;;;;;;;;;24.33;22.33;;;;;21.12;42.80;100410.48;109372;1279;21577;-75
2021/12/11 07:22:25;;;;;;;;;29.00;24.00;;;;;21.20;42.92;100410.17;109394;1279;19374;-77
2021/12/11 07:24:51;;;;;;;;;25.00;21.00;;;;;21.26;43.25;100414.58;109377;1279;23220;-77
2021/12/11 07:27:18;;;;;;;;;29.00;25.50;;;;;21.29;43.68;100418.38;109378;1280;18848;-77
2021/12/11 07:29:44;;;;;;;;;35.33;27.67;;;;;21.34;44.11;100415.97;109389;1279;21241;-77
2021/12/11 07:32:11;;;;;;;;;26.00;24.00;;;;;21.35;43.76;100419.44;109382;1279;18595;-77
2021/12/11 07:34:37;;;;;;;;;30.00;26.33;;;;;21.37;44.12;100429.79;109372;1279;19100;-78
2021/12/11 07:37:03;;;;;;;;;33.00;26.00;;;;;21.38;44.25;100433.31;109369;1279;19334;-77
2021/12/11 07:39:29;;;;;;;;;29.00;25.50;;;;;21.37;44.25;100433.55;109259;1280;19574;-78
2021/12/11 07:41:55;;;;;;;;;26.00;25.00;;;;;21.39;44.40;100432.05;109259;1280;19313;-76
2021/12/11 07:44:21;;;;;;;;;31.00;28.00;;;;;21.41;44.21;100436.96;109096;1279;19648;-77
2021/12/11 07:46:47;;;;;;;;;32.50;26.00;;;;;21.41;44.17;100442.75;109385;1280;19233;-77
2021/12/11 07:49:12;;;;;;;;;30.00;28.00;;;;;21.40;44.23;100448.83;109373;1280;18713;-75
2021/12/11 07:51:38;;;;;;;;;33.00;29.00;;;;;21.37;44.22;100451.96;109390;1280;19249;-78
2021/12/11 07:54:04;;;;;;;;;31.00;26.50;;;;;21.36;44.20;100452.41;109325;1280;18706;-78
2021/12/11 07:56:31;;;;;;;;;28.33;27.67;;;;;21.32;43.85;100452.76;109370;1280;19443;-78
2021/12/11 07:58:57;;;;;;;;;32.33;29.67;;;;;21.24;43.89;100459.30;109389;1278;22010;-79
2021/12/11 08:01:23;;;;;;;;;30.00;26.00;;;;;21.23;43.90;100467.05;109366;1279;19090;-78
2021/12/11 08:03:49;;;;;;;;;33.00;29.00;;;;;21.20;44.19;100477.93;109383;1280;18808;-79
2021/12/11 08:06:15;;;;;;;;;32.50;29.00;;;;;21.17;44.79;100473.61;109331;1280;19942;-78
2021/12/11 08:08:41;;;;;;;;;31.00;28.00;;;;;21.22;44.48;100485.00;109565;1280;19112;-77
2021/12/11 08:11:07;;;;;;;;;32.00;27.00;;;;;21.24;44.38;100490.63;109480;1280;18703;-78
2021/12/11 08:13:33;;;;;;;;;27.33;24.67;;;;;21.28;44.57;100505.13;109935;1280;20245;-77
2021/12/11 08:15:59;;;;;;;;;29.50;25.00;;;;;21.33;44.42;100505.98;109254;1279;18642;-78
2021/12/11 08:18:25;;;;;;;;;33.00;28.00;;;;;21.39;44.32;100507.28;109180;1272;122605;-76
2021/12/11 08:20:51;;;;;;;;;32.33;30.33;;;;;21.42;44.45;100503.34;109337;1280;19421;-78
2021/12/11 08:23:17;;;;;;;;;28.50;26.50;;;;;21.44;45.31;100507.27;109244;1280;23644;-78
2021/12/11 08:25:43;;;;;;;;;29.00;25.00;;;;;21.47;46.41;100506.27;109413;1280;23118;-79
2021/12/11 08:28:09;;;;;;;;;38.00;29.00;;;;;21.47;47.35;100511.19;109313;1279;22116;-78
2021/12/11 08:30:35;;;;;;;;;37.00;30.50;;;;;21.46;48.61;100514.39;109297;1279;18569;-79
2021/12/11 08:33:01;;;;;;;;;31.33;29.00;;;;;21.47;48.36;100512.31;109397;1280;18923;-76
2021/12/11 08:35:27;;;;;;;;;32.50;28.00;;;;;21.49;48.62;100510.48;109354;1280;19438;-79
2021/12/11 08:37:53;;;;;;;;;38.00;32.50;;;;;21.53;47.90;100508.70;109385;1279;18582;-78
2021/12/11 08:40:19;;;;;;;;;35.00;28.00;;;;;21.53;47.31;100517.17;109372;1279;18682;-77
2021/12/11 08:42:46;;;;;;;;;33.67;32.00;;;;;21.50;47.85;100519.81;109353;1280;20415;-76
2021/12/11 08:45:20;;;;;;;;;31.00;29.33;;;;;21.52;47.68;100533.08;109315;1279;19344;-78
2021/12/11 08:47:47;;;;;;;;;33.67;29.00;;;;;21.55;47.06;100539.11;109368;1280;20633;-78
2021/12/11 08:50:13;;;;;;;;;34.67;29.00;;;;;21.56;46.48;100542.02;109416;1278;19594;-77
2021/12/11 08:52:39;;;;;;;;;34.33;30.00;;;;;21.57;47.02;100543.05;109357;1280;21082;-78
2021/12/11 08:55:05;;;;;;;;;33.50;30.00;;;;;21.52;46.94;100535.80;109328;1280;18737;-77
2021/12/11 08:57:31;;;;;;;;;36.00;32.00;;;;;21.53;46.69;100539.42;109302;1280;19341;-78
2021/12/11 08:59:57;;;;;;;;;28.50;27.00;;;;;21.49;46.97;100537.72;109350;1280;18696;-77
2021/12/11 09:02:23;;;;;;;;;31.00;29.00;;;;;21.51;46.63;100541.64;109337;1279;18684;-77
2021/12/11 09:04:49;;;;;;;;;34.50;27.50;;;;;21.52;46.46;100541.71;109337;1280;19262;-75
2021/12/11 09:07:15;;;;;;;;;33.00;28.50;;;;;21.48;46.59;100535.79;109361;1279;19455;-75
2021/12/11 09:09:41;;;;;;;;;33.00;28.00;;;;;21.52;46.62;100536.55;109324;1279;20857;-75
2021/12/11 09:12:06;;;;;;;;;32.50;30.50;;;;;21.55;46.64;100538.98;109316;1280;20176;-76
2021/12/11 09:14:32;;;;;;;;;32.00;29.00;;;;;21.53;46.86;100539.16;109319;1279;18733;-76
2021/12/11 09:17:00;;;;;;;;;33.50;28.50;;;;;21.52;46.96;100536.08;109287;1280;20480;-77
2021/12/11 09:19:27;;;;;;;;;34.67;29.00;;;;;21.50;46.91;100537.36;109355;1280;19719;-77
2021/12/11 09:21:53;;;;;;;;;33.00;29.00;;;;;21.50;46.74;100540.11;109384;1279;20657;-77
2021/12/11 09:24:23;;;;;;;;;37.33;30.00;;;;;21.46;46.73;100536.92;109343;1279;19532;-77
2021/12/11 09:26:49;;;;;;;;;37.00;30.00;;;;;21.47;46.75;100551.95;109322;1280;21100;-77
2021/12/11 09:29:15;;;;;;;;;35.00;32.00;;;;;21.46;46.59;100555.85;109343;1279;19223;-77
2021/12/11 09:31:42;;;;;;;;;33.00;28.33;;;;;21.50;46.42;100565.21;109349;1280;19164;-78
2021/12/11 09:34:08;;;;;;;;;36.33;29.67;;;;;21.51;46.62;100571.60;109288;1280;21112;-79
2021/12/11 09:36:34;;;;;;;;;30.00;28.50;;;;;21.51;46.91;100571.43;109221;1279;18536;-78
2021/12/11 09:39:04;;;;;;;;;32.67;28.67;;;;;21.52;46.81;100562.67;109917;1280;19591;-78
2021/12/11 09:41:32;;;;;;;;;73.00;50.33;;;;;21.54;46.63;100558.72;109522;1280;20173;-77
2021/12/11 09:43:58;;;;;;;;;80.67;58.00;;;;;21.57;46.97;100559.78;109299;1280;18807;-75
2021/12/11 09:46:24;;;;;;;;;97.33;70.67;;;;;21.58;46.92;100569.45;109362;1279;19337;-77
2021/12/11 09:48:50;;;;;;;;;199.00;148.50;;;;;21.56;46.89;100564.80;109265;1279;19953;-77
2021/12/11 09:51:17;;;;;;;;;235.50;182.25;;;;;21.61;47.22;100571.72;109266;1279;18715;-77
2021/12/11 09:53:43;;;;;;;;;157.33;123.67;;;;;21.63;47.28;100571.69;109321;1280;21408;-77
2021/12/11 09:56:09;;;;;;;;;187.00;141.33;;;;;21.62;47.59;100579.81;109338;1279;19367;-77
2021/12/11 09:58:35;;;;;;;;;163.33;124.00;;;;;21.63;47.98;100582.56;109314;1280;24308;-77
2021/12/11 10:01:03;;;;;;;;;167.33;121.00;;;;;21.63;47.87;100582.15;109326;1279;19854;-79
2021/12/11 10:03:29;;;;;;;;;164.50;117.75;;;;;21.64;47.88;100583.14;109351;1279;19664;-78
2021/12/11 10:05:56;;;;;;;;;141.25;105.50;;;;;21.66;48.11;100585.27;109357;1279;19848;-78
2021/12/11 10:08:28;;;;;;;;;123.00;97.67;;;;;21.67;47.95;100586.08;109270;1279;20153;-78
2021/12/11 10:10:54;;;;;;;;;116.67;92.33;;;;;21.68;48.23;100594.30;109368;1279;19662;-76
2021/12/11 10:13:20;;;;;;;;;108.00;88.00;;;;;21.66;48.28;100588.00;109322;1279;19038;-75
2021/12/11 10:15:46;;;;;;;;;105.33;79.00;;;;;21.64;48.57;100585.35;109303;1279;23664;-78
2021/12/11 10:18:12;;;;;;;;;108.33;81.67;;;;;21.66;48.69;100588.54;109591;1280;19419;-78
2021/12/11 10:20:38;;;;;;;;;102.00;73.00;;;;;21.67;47.86;100593.84;109341;1280;19653;-77
2021/12/11 10:23:03;;;;;;;;;96.33;68.67;;;;;21.69;46.93;100591.77;109254;1280;23216;-80
2021/12/11 10:25:30;;;;;;;;;92.33;70.00;;;;;21.69;47.72;100591.51;109330;1278;21465;-75
2021/12/11 10:27:56;;;;;;;;;93.00;67.00;;;;;21.67;47.55;100597.90;109283;1280;18942;-73
2021/12/11 10:30:22;;;;;;;;;93.33;69.00;;;;;21.65;47.61;100600.90;109331;1280;18986;-78
2021/12/11 10:32:48;;;;;;;;;91.33;63.00;;;;;21.65;47.76;100599.23;109323;1280;20274;-73
2021/12/11 10:35:14;;;;;;;;;87.33;66.00;;;;;21.56;47.91;100602.98;109395;1280;18774;-73
2021/12/11 10:37:40;;;;;;;;;83.33;62.00;;;;;21.48;48.03;100612.59;109336;1279;18886;-74
2021/12/11 10:40:06;;;;;;;;;85.00;58.00;;;;;21.38;48.10;100607.73;109375;1280;19956;-75
2021/12/11 10:42:32;;;;;;;;;84.00;60.00;;;;;21.31;48.18;100610.41;109242;1281;19265;-75
2021/12/11 10:44:58;;;;;;;;;74.00;56.50;;;;;21.27;48.06;100607.58;109333;1280;18827;-74
2021/12/11 10:47:24;;;;;;;;;76.50;57.00;;;;;21.23;48.13;100604.59;109381;1280;19876;-73
2021/12/11 10:49:50;;;;;;;;;72.67;54.00;;;;;21.21;47.99;100611.79;109357;1280;20516;-74
2021/12/11 10:52:16;;;;;;;;;76.00;54.00;;;;;21.19;47.78;100616.21;109399;1279;22241;-74
2021/12/11 10:54:42;;;;;;;;;73.67;53.67;;;;;21.17;47.79;100626.95;109345;1280;19548;-74
2021/12/11 10:57:08;;;;;;;;;74.00;52.00;;;;;21.16;47.75;100633.84;109428;1280;19465;-74
2021/12/11 10:59:34;;;;;;;;;65.50;51.00;;;;;21.14;47.60;100639.19;109351;1279;20636;-74